sensor_id;sensor_type;location;lat;lon;timestamp;temperature;humidity
25170;DHT22;13129;48.012;10.352;2022-08-21T03:30:46;11.50;99.90
25170;DHT22;13129;48.012;10.352;2022-08-21T03:33:13;11.50;99.90
25170;DHT22;13129;48.012;10.352;2022-08-21T03:35:39;11.50;99.90
25170;DHT22;13129;48.012;10.352;2022-08-21T03:38:06;11.50;99.90
25170;DHT22;13129;48.012;10.352;2022-08-21T03:40:31;11.50;99.90
25170;DHT22;13129;48.012;10.352;2022-08-21T03:42:57;11.50;99.90
25170;DHT22;13129;48.012;10.352;2022-08-21T03:45:24;11.40;99.90
25170;DHT22;13129;48.012;10.352;2022-08-21T03:47:55;11.40;99.90
25170;DHT22;13129;48.012;10.352;2022-08-21T03:50:22;11.40;99.90
25170;DHT22;13129;48.012;10.352;2022-08-21T03:52:48;11.30;99.90
25170;DHT22;13129;48.012;10.352;2022-08-21T03:55:14;11.30;99.90
25170;DHT22;13129;48.012;10.352;2022-08-21T03:57:39;11.30;99.90
25170;DHT22;13129;48.012;10.352;2022-08-21T04:00:05;11.30;99.90
25170;DHT22;13129;48.012;10.352;2022-08-21T04:02:34;11.30;99.90
25170;DHT22;13129;48.012;10.352;2022-08-21T04:04:59;11.20;99.90
25170;DHT22;13129;48.012;10.352;2022-08-21T04:07:25;11.20;99.90
25170;DHT22;13129;48.012;10.352;2022-08-21T04:09:51;11.20;99.90
25170;DHT22;13129;48.012;10.352;2022-08-21T04:12:16;11.10;99.90
25170;DHT22;13129;48.012;10.352;2022-08-21T04:14:42;11.10;99.90
25170;DHT22;13129;48.012;10.352;2022-08-21T04:17:07;11.10;99.90
25170;DHT22;13129;48.012;10.352;2022-08-21T04:19:33;11.10;99.90
25170;DHT22;13129;48.012;10.352;2022-08-21T04:21:59;11.10;99.90
25170;DHT22;13129;48.012;10.352;2022-08-21T04:24:25;11.10;99.90
25170;DHT22;13129;48.012;10.352;2022-08-21T04:26:50;11.00;99.90
25170;DHT22;13129;48.012;10.352;2022-08-21T04:29:16;11.10;99.90
25170;DHT22;13129;48.012;10.352;2022-08-21T04:31:41;11.10;99.90
25170;DHT22;13129;48.012;10.352;2022-08-21T04:34:09;11.10;99.90
25170;DHT22;13129;48.012;10.352;2022-08-21T04:36:35;11.10;99.90
25170;DHT22;13129;48.012;10.352;2022-08-21T04:39:01;11.10;99.90
25170;DHT22;13129;48.012;10.352;2022-08-21T04:41:27;11.10;99.90
25170;DHT22;13129;48.012;10.352;2022-08-21T04:43:54;11.20;99.90
25170;DHT22;13129;48.012;10.352;2022-08-21T04:46:21;11.20;99.90
25170;DHT22;13129;48.012;10.352;2022-08-21T04:48:47;11.20;99.90
25170;DHT22;13129;48.012;10.352;2022-08-21T04:54:14;11.30;99.90
25170;DHT22;13129;48.012;10.352;2022-08-21T04:56:42;11.40;99.90
25170;DHT22;13129;48.012;10.352;2022-08-21T04:59:16;11.40;99.90
25170;DHT22;13129;48.012;10.352;2022-08-21T05:01:43;11.40;99.90
25170;DHT22;13129;48.012;10.352;2022-08-21T05:04:13;11.50;99.90
25170;DHT22;13129;48.012;10.352;2022-08-21T05:06:41;11.50;99.90
25170;DHT22;13129;48.012;10.352;2022-08-21T05:09:09;11.60;99.90
25170;DHT22;13129;48.012;10.352;2022-08-21T05:11:37;11.70;99.90
25170;DHT22;13129;48.012;10.352;2022-08-21T05:14:03;11.80;99.90
25170;DHT22;13129;48.012;10.352;2022-08-21T05:16:28;11.90;99.90
25170;DHT22;13129;48.012;10.352;2022-08-21T05:18:54;12.10;99.90
25170;DHT22;13129;48.012;10.352;2022-08-21T05:21:20;12.10;99.90
25170;DHT22;13129;48.012;10.352;2022-08-21T05:23:46;12.30;99.90
25170;DHT22;13129;48.012;10.352;2022-08-21T05:26:12;12.60;99.90
25170;DHT22;13129;48.012;10.352;2022-08-21T05:28:38;12.90;99.90
25170;DHT22;13129;48.012;10.352;2022-08-21T05:31:03;13.30;99.90
25170;DHT22;13129;48.012;10.352;2022-08-21T05:33:29;13.70;99.90
25170;DHT22;13129;48.012;10.352;2022-08-21T05:35:55;14.70;99.90
25170;DHT22;13129;48.012;10.352;2022-08-21T05:38:22;15.40;99.90
25170;DHT22;13129;48.012;10.352;2022-08-21T05:40:48;15.60;99.90
25170;DHT22;13129;48.012;10.352;2022-08-21T05:43:14;16.30;99.90
25170;DHT22;13129;48.012;10.352;2022-08-21T05:45:40;16.90;99.90
25170;DHT22;13129;48.012;10.352;2022-08-21T05:48:18;17.50;99.90
25170;DHT22;13129;48.012;10.352;2022-08-21T05:50:46;18.60;99.90
25170;DHT22;13129;48.012;10.352;2022-08-21T05:53:13;19.90;99.90
25170;DHT22;13129;48.012;10.352;2022-08-21T05:55:40;21.70;99.90
25170;DHT22;13129;48.012;10.352;2022-08-21T05:58:06;23.50;99.90
25170;DHT22;13129;48.012;10.352;2022-08-21T06:00:32;25.10;99.90
25170;DHT22;13129;48.012;10.352;2022-08-21T06:02:58;26.20;99.90
25170;DHT22;13129;48.012;10.352;2022-08-21T06:05:24;27.20;99.90
25170;DHT22;13129;48.012;10.352;2022-08-21T06:07:50;28.00;99.90
25170;DHT22;13129;48.012;10.352;2022-08-21T06:10:16;28.60;99.00
25170;DHT22;13129;48.012;10.352;2022-08-21T06:12:42;29.30;95.30
25170;DHT22;13129;48.012;10.352;2022-08-21T06:15:08;29.80;92.00
25170;DHT22;13129;48.012;10.352;2022-08-21T06:17:34;30.20;90.00
25170;DHT22;13129;48.012;10.352;2022-08-21T06:20:00;30.40;85.50
25170;DHT22;13129;48.012;10.352;2022-08-21T06:22:26;31.00;81.70
25170;DHT22;13129;48.012;10.352;2022-08-21T06:24:52;31.40;79.10
25170;DHT22;13129;48.012;10.352;2022-08-21T06:27:17;31.70;76.90
25170;DHT22;13129;48.012;10.352;2022-08-21T06:29:43;32.10;74.80
25170;DHT22;13129;48.012;10.352;2022-08-21T06:32:11;32.50;73.30
25170;DHT22;13129;48.012;10.352;2022-08-21T06:34:38;32.80;71.40
25170;DHT22;13129;48.012;10.352;2022-08-21T06:37:04;32.80;69.20
25170;DHT22;13129;48.012;10.352;2022-08-21T06:39:30;33.10;67.50
25170;DHT22;13129;48.012;10.352;2022-08-21T06:41:56;33.40;67.70
25170;DHT22;13129;48.012;10.352;2022-08-21T06:44:22;33.90;66.60
25170;DHT22;13129;48.012;10.352;2022-08-21T06:46:47;34.40;65.50
25170;DHT22;13129;48.012;10.352;2022-08-21T06:49:13;34.70;63.70
25170;DHT22;13129;48.012;10.352;2022-08-21T06:51:39;34.80;61.80
25170;DHT22;13129;48.012;10.352;2022-08-21T06:54:05;35.10;61.60
25170;DHT22;13129;48.012;10.352;2022-08-21T06:56:31;35.30;60.30
25170;DHT22;13129;48.012;10.352;2022-08-21T06:58:58;34.80;59.30
25170;DHT22;13129;48.012;10.352;2022-08-21T07:01:25;34.70;59.60
25170;DHT22;13129;48.012;10.352;2022-08-21T07:03:51;34.90;58.90
25170;DHT22;13129;48.012;10.352;2022-08-21T07:06:17;34.80;58.70
25170;DHT22;13129;48.012;10.352;2022-08-21T07:08:43;34.30;58.70
25170;DHT22;13129;48.012;10.352;2022-08-21T07:11:20;34.20;59.40
25170;DHT22;13129;48.012;10.352;2022-08-21T07:13:47;33.80;59.50
25170;DHT22;13129;48.012;10.352;2022-08-21T07:16:14;34.00;59.00
25170;DHT22;13129;48.012;10.352;2022-08-21T07:18:40;34.40;58.90
25170;DHT22;13129;48.012;10.352;2022-08-21T07:21:06;34.40;57.50
25170;DHT22;13129;48.012;10.352;2022-08-21T07:23:38;34.00;58.30
25170;DHT22;13129;48.012;10.352;2022-08-21T07:26:04;34.20;58.50
25170;DHT22;13129;48.012;10.352;2022-08-21T07:28:30;34.80;58.10
25170;DHT22;13129;48.012;10.352;2022-08-21T07:30:58;34.10;57.10
25170;DHT22;13129;48.012;10.352;2022-08-21T07:33:26;33.90;58.50
25170;DHT22;13129;48.012;10.352;2022-08-21T07:35:52;34.20;58.70
25170;DHT22;13129;48.012;10.352;2022-08-21T07:38:18;34.70;57.90
25170;DHT22;13129;48.012;10.352;2022-08-21T07:40:45;34.60;56.90
25170;DHT22;13129;48.012;10.352;2022-08-21T07:43:11;34.30;57.10
25170;DHT22;13129;48.012;10.352;2022-08-21T07:45:37;34.20;56.50
25170;DHT22;13129;48.012;10.352;2022-08-21T07:48:03;33.90;56.50
25170;DHT22;13129;48.012;10.352;2022-08-21T07:50:29;33.90;57.10
25170;DHT22;13129;48.012;10.352;2022-08-21T07:52:55;34.00;57.00
25170;DHT22;13129;48.012;10.352;2022-08-21T07:55:21;34.50;57.00
25170;DHT22;13129;48.012;10.352;2022-08-21T07:57:48;34.80;56.50
25170;DHT22;13129;48.012;10.352;2022-08-21T08:00:17;35.40;56.00
25170;DHT22;13129;48.012;10.352;2022-08-21T08:02:49;35.60;54.60
25170;DHT22;13129;48.012;10.352;2022-08-21T08:05:16;35.70;53.00
25170;DHT22;13129;48.012;10.352;2022-08-21T08:07:42;35.60;53.70
25170;DHT22;13129;48.012;10.352;2022-08-21T08:10:09;35.30;53.30
25170;DHT22;13129;48.012;10.352;2022-08-21T08:12:38;36.00;54.20
25170;DHT22;13129;48.012;10.352;2022-08-21T08:15:06;36.10;53.20
25170;DHT22;13129;48.012;10.352;2022-08-21T08:17:32;36.10;52.50
25170;DHT22;13129;48.012;10.352;2022-08-21T08:19:58;36.30;53.00
25170;DHT22;13129;48.012;10.352;2022-08-21T08:22:26;37.70;52.50
25170;DHT22;13129;48.012;10.352;2022-08-21T08:24:53;38.40;51.30
25170;DHT22;13129;48.012;10.352;2022-08-21T08:27:20;38.50;50.10
25170;DHT22;13129;48.012;10.352;2022-08-21T08:29:46;38.30;49.70
25170;DHT22;13129;48.012;10.352;2022-08-21T08:32:12;38.90;49.60
25170;DHT22;13129;48.012;10.352;2022-08-21T08:34:39;39.20;49.00
25170;DHT22;13129;48.012;10.352;2022-08-21T08:37:06;39.20;48.00
25170;DHT22;13129;48.012;10.352;2022-08-21T08:39:32;38.60;47.80
25170;DHT22;13129;48.012;10.352;2022-08-21T08:42:05;38.10;48.20
25170;DHT22;13129;48.012;10.352;2022-08-21T08:44:31;37.50;49.10
25170;DHT22;13129;48.012;10.352;2022-08-21T08:46:57;36.60;49.30
25170;DHT22;13129;48.012;10.352;2022-08-21T08:49:30;36.20;50.30
25170;DHT22;13129;48.012;10.352;2022-08-21T08:52:01;36.60;50.40
25170;DHT22;13129;48.012;10.352;2022-08-21T08:54:49;37.50;50.60
25170;DHT22;13129;48.012;10.352;2022-08-21T08:57:17;38.60;49.50
25170;DHT22;13129;48.012;10.352;2022-08-21T08:59:46;38.00;47.20
25170;DHT22;13129;48.012;10.352;2022-08-21T09:02:14;38.10;47.70
25170;DHT22;13129;48.012;10.352;2022-08-21T09:04:42;38.40;47.40
25170;DHT22;13129;48.012;10.352;2022-08-21T09:13:02;37.60;47.30
25170;DHT22;13129;48.012;10.352;2022-08-21T09:27:27;38.10;44.50
25170;DHT22;13129;48.012;10.352;2022-08-21T09:29:55;37.90;45.70
25170;DHT22;13129;48.012;10.352;2022-08-21T09:32:29;38.20;45.60
25170;DHT22;13129;48.012;10.352;2022-08-21T09:35:05;38.20;44.80
25170;DHT22;13129;48.012;10.352;2022-08-21T09:37:35;38.40;43.70
25170;DHT22;13129;48.012;10.352;2022-08-21T09:40:02;38.10;44.00
25170;DHT22;13129;48.012;10.352;2022-08-21T09:42:30;38.70;43.80
25170;DHT22;13129;48.012;10.352;2022-08-21T09:45:16;39.60;42.60
25170;DHT22;13129;48.012;10.352;2022-08-21T09:47:43;40.30;41.40
25170;DHT22;13129;48.012;10.352;2022-08-21T09:50:24;41.00;40.20
25170;DHT22;13129;48.012;10.352;2022-08-21T09:52:56;40.80;40.60
25170;DHT22;13129;48.012;10.352;2022-08-21T09:55:38;41.40;40.10
25170;DHT22;13129;48.012;10.352;2022-08-21T09:58:32;41.40;40.40
25170;DHT22;13129;48.012;10.352;2022-08-21T10:00:59;41.20;41.00
25170;DHT22;13129;48.012;10.352;2022-08-21T10:03:26;40.50;42.60
25170;DHT22;13129;48.012;10.352;2022-08-21T10:06:06;40.30;42.80
25170;DHT22;13129;48.012;10.352;2022-08-21T10:08:35;39.80;42.60
25170;DHT22;13129;48.012;10.352;2022-08-21T10:11:13;39.80;42.90
25170;DHT22;13129;48.012;10.352;2022-08-21T10:22:28;40.60;40.10
25170;DHT22;13129;48.012;10.352;2022-08-21T10:25:17;38.10;41.30
25170;DHT22;13129;48.012;10.352;2022-08-21T10:28:17;35.60;44.70
25170;DHT22;13129;48.012;10.352;2022-08-21T10:31:02;33.30;47.90
25170;DHT22;13129;48.012;10.352;2022-08-21T10:44:36;34.60;46.60
25170;DHT22;13129;48.012;10.352;2022-08-21T10:47:06;32.60;50.70
25170;DHT22;13129;48.012;10.352;2022-08-21T10:49:45;30.80;53.50
25170;DHT22;13129;48.012;10.352;2022-08-21T10:55:10;29.30;61.30
25170;DHT22;13129;48.012;10.352;2022-08-21T10:57:45;29.40;62.80
25170;DHT22;13129;48.012;10.352;2022-08-21T11:00:16;29.60;62.20
25170;DHT22;13129;48.012;10.352;2022-08-21T11:05:33;28.70;62.60
25170;DHT22;13129;48.012;10.352;2022-08-21T11:08:07;28.50;63.10
25170;DHT22;13129;48.012;10.352;2022-08-21T11:10:46;28.00;62.80
25170;DHT22;13129;48.012;10.352;2022-08-21T11:13:19;27.70;64.10
25170;DHT22;13129;48.012;10.352;2022-08-21T11:16:17;27.60;66.00
25170;DHT22;13129;48.012;10.352;2022-08-21T11:19:30;27.50;62.40
25170;DHT22;13129;48.012;10.352;2022-08-21T11:21:56;27.70;61.40
25170;DHT22;13129;48.012;10.352;2022-08-21T11:27:27;27.50;60.70
25170;DHT22;13129;48.012;10.352;2022-08-21T11:29:56;27.50;59.30
25170;DHT22;13129;48.012;10.352;2022-08-21T11:41:05;27.40;61.10
25170;DHT22;13129;48.012;10.352;2022-08-21T11:43:42;27.10;62.00
25170;DHT22;13129;48.012;10.352;2022-08-21T11:54:41;27.30;58.10
25170;DHT22;13129;48.012;10.352;2022-08-21T12:00:00;26.90;59.40
25170;DHT22;13129;48.012;10.352;2022-08-21T12:02:33;27.20;59.60
25170;DHT22;13129;48.012;10.352;2022-08-21T12:05:05;27.20;61.60
25170;DHT22;13129;48.012;10.352;2022-08-21T12:07:43;27.20;62.60
25170;DHT22;13129;48.012;10.352;2022-08-21T12:10:16;27.10;61.70
25170;DHT22;13129;48.012;10.352;2022-08-21T12:12:44;26.90;62.80
25170;DHT22;13129;48.012;10.352;2022-08-21T12:17:57;26.80;62.80
25170;DHT22;13129;48.012;10.352;2022-08-21T12:23:23;26.80;63.40
25170;DHT22;13129;48.012;10.352;2022-08-21T12:28:36;27.00;63.00
25170;DHT22;13129;48.012;10.352;2022-08-21T12:31:02;26.50;62.20
25170;DHT22;13129;48.012;10.352;2022-08-21T12:33:37;25.80;64.40
25170;DHT22;13129;48.012;10.352;2022-08-21T12:36:15;25.30;66.50
25170;DHT22;13129;48.012;10.352;2022-08-21T12:41:33;25.30;69.10
25170;DHT22;13129;48.012;10.352;2022-08-21T12:44:04;25.80;67.00
25170;DHT22;13129;48.012;10.352;2022-08-21T12:46:45;25.80;67.30
25170;DHT22;13129;48.012;10.352;2022-08-21T12:49:21;26.20;67.10
25170;DHT22;13129;48.012;10.352;2022-08-21T12:52:09;25.90;65.00
25170;DHT22;13129;48.012;10.352;2022-08-21T12:54:43;25.60;66.20
25170;DHT22;13129;48.012;10.352;2022-08-21T12:57:19;25.10;66.50
25170;DHT22;13129;48.012;10.352;2022-08-21T12:59:45;24.60;67.70
25170;DHT22;13129;48.012;10.352;2022-08-21T13:02:20;24.10;68.60
25170;DHT22;13129;48.012;10.352;2022-08-21T13:04:48;23.80;69.50
25170;DHT22;13129;48.012;10.352;2022-08-21T13:07:25;23.60;70.00
25170;DHT22;13129;48.012;10.352;2022-08-21T13:09:56;23.80;69.80
25170;DHT22;13129;48.012;10.352;2022-08-21T13:12:23;24.20;68.60
25170;DHT22;13129;48.012;10.352;2022-08-21T13:14:51;24.50;67.40
25170;DHT22;13129;48.012;10.352;2022-08-21T13:17:19;24.60;65.00
25170;DHT22;13129;48.012;10.352;2022-08-21T13:22:29;24.70;63.60
25170;DHT22;13129;48.012;10.352;2022-08-21T13:24:55;24.60;63.00
25170;DHT22;13129;48.012;10.352;2022-08-21T13:27:30;24.80;63.90
25170;DHT22;13129;48.012;10.352;2022-08-21T13:30:07;24.80;65.70
25170;DHT22;13129;48.012;10.352;2022-08-21T13:32:35;24.70;66.10
25170;DHT22;13129;48.012;10.352;2022-08-21T13:35:15;24.80;63.90
25170;DHT22;13129;48.012;10.352;2022-08-21T13:37:42;24.80;61.70
25170;DHT22;13129;48.012;10.352;2022-08-21T13:40:24;24.80;62.30
25170;DHT22;13129;48.012;10.352;2022-08-21T13:42:50;24.80;61.90
25170;DHT22;13129;48.012;10.352;2022-08-21T13:45:23;24.80;60.00
25170;DHT22;13129;48.012;10.352;2022-08-21T13:47:50;24.60;59.80
25170;DHT22;13129;48.012;10.352;2022-08-21T13:50:18;24.60;59.80
25170;DHT22;13129;48.012;10.352;2022-08-21T13:52:55;24.50;60.60
25170;DHT22;13129;48.012;10.352;2022-08-21T13:55:21;24.50;60.90
25170;DHT22;13129;48.012;10.352;2022-08-21T13:57:47;24.50;60.70
25170;DHT22;13129;48.012;10.352;2022-08-21T14:00:17;24.50;58.60
25170;DHT22;13129;48.012;10.352;2022-08-21T14:02:45;24.60;58.50
25170;DHT22;13129;48.012;10.352;2022-08-21T14:05:33;24.60;58.20
25170;DHT22;13129;48.012;10.352;2022-08-21T14:08:55;24.60;58.30
25170;DHT22;13129;48.012;10.352;2022-08-21T14:10:54;24.70;58.40
25170;DHT22;13129;48.012;10.352;2022-08-21T14:13:44;24.50;58.60
25170;DHT22;13129;48.012;10.352;2022-08-21T14:16:18;24.40;58.80
25170;DHT22;13129;48.012;10.352;2022-08-21T14:21:26;24.50;59.00
25170;DHT22;13129;48.012;10.352;2022-08-21T14:24:42;24.40;58.70
25170;DHT22;13129;48.012;10.352;2022-08-21T14:29:39;24.30;59.30
25170;DHT22;13129;48.012;10.352;2022-08-21T14:32:19;24.40;59.10
25170;DHT22;13129;48.012;10.352;2022-08-21T14:34:45;24.40;59.50
25170;DHT22;13129;48.012;10.352;2022-08-21T14:37:11;24.40;59.80
25170;DHT22;13129;48.012;10.352;2022-08-21T14:39:36;24.30;61.20
25170;DHT22;13129;48.012;10.352;2022-08-21T14:42:02;24.30;62.20
25170;DHT22;13129;48.012;10.352;2022-08-21T14:44:28;24.00;63.70
25170;DHT22;13129;48.012;10.352;2022-08-21T14:46:55;24.00;63.50
25170;DHT22;13129;48.012;10.352;2022-08-21T14:49:21;23.90;62.30
25170;DHT22;13129;48.012;10.352;2022-08-21T14:51:47;23.80;62.00
25170;DHT22;13129;48.012;10.352;2022-08-21T14:54:12;23.80;61.90
25170;DHT22;13129;48.012;10.352;2022-08-21T14:56:38;23.70;62.50
25170;DHT22;13129;48.012;10.352;2022-08-21T14:59:07;23.60;61.50
25170;DHT22;13129;48.012;10.352;2022-08-21T15:01:43;23.60;61.10
25170;DHT22;13129;48.012;10.352;2022-08-21T15:04:09;23.60;59.80
25170;DHT22;13129;48.012;10.352;2022-08-21T15:06:35;23.50;60.30
25170;DHT22;13129;48.012;10.352;2022-08-21T15:09:01;23.40;62.20
25170;DHT22;13129;48.012;10.352;2022-08-21T15:11:29;23.20;63.30
25170;DHT22;13129;48.012;10.352;2022-08-21T15:13:58;23.00;64.80
25170;DHT22;13129;48.012;10.352;2022-08-21T15:16:27;22.80;66.30
25170;DHT22;13129;48.012;10.352;2022-08-21T15:18:54;22.80;67.20
25170;DHT22;13129;48.012;10.352;2022-08-21T15:21:20;22.80;67.70
25170;DHT22;13129;48.012;10.352;2022-08-21T15:23:45;22.70;68.50
25170;DHT22;13129;48.012;10.352;2022-08-21T15:26:11;22.70;69.70
25170;DHT22;13129;48.012;10.352;2022-08-21T15:28:37;22.70;70.00
25170;DHT22;13129;48.012;10.352;2022-08-21T15:31:04;22.80;71.00
25170;DHT22;13129;48.012;10.352;2022-08-21T15:33:30;22.80;71.40
25170;DHT22;13129;48.012;10.352;2022-08-21T15:35:56;22.70;71.40
25170;DHT22;13129;48.012;10.352;2022-08-21T15:38:22;22.70;71.80
25170;DHT22;13129;48.012;10.352;2022-08-21T15:40:47;22.50;71.50
25170;DHT22;13129;48.012;10.352;2022-08-21T15:43:26;22.50;71.40
25170;DHT22;13129;48.012;10.352;2022-08-21T15:45:53;22.40;71.30
25170;DHT22;13129;48.012;10.352;2022-08-21T15:48:19;22.40;71.40
25170;DHT22;13129;48.012;10.352;2022-08-21T15:50:45;22.40;71.50
25170;DHT22;13129;48.012;10.352;2022-08-21T15:53:11;22.30;72.20
25170;DHT22;13129;48.012;10.352;2022-08-21T15:55:36;22.20;72.10
25170;DHT22;13129;48.012;10.352;2022-08-21T15:58:03;22.20;72.20
25170;DHT22;13129;48.012;10.352;2022-08-21T16:00:32;22.20;72.60
25170;DHT22;13129;48.012;10.352;2022-08-21T16:02:59;22.10;73.30
25170;DHT22;13129;48.012;10.352;2022-08-21T16:05:26;22.10;73.50
25170;DHT22;13129;48.012;10.352;2022-08-21T16:07:52;22.10;74.60
25170;DHT22;13129;48.012;10.352;2022-08-21T16:10:20;22.10;74.50
25170;DHT22;13129;48.012;10.352;2022-08-21T16:12:56;22.20;74.50
25170;DHT22;13129;48.012;10.352;2022-08-21T16:15:22;22.20;74.00
25170;DHT22;13129;48.012;10.352;2022-08-21T16:17:49;22.20;73.80
25170;DHT22;13129;48.012;10.352;2022-08-21T16:20:25;22.20;74.30
25170;DHT22;13129;48.012;10.352;2022-08-21T16:22:53;22.20;74.10
25170;DHT22;13129;48.012;10.352;2022-08-21T16:25:20;22.20;74.60
25170;DHT22;13129;48.012;10.352;2022-08-21T16:27:49;22.20;74.60
25170;DHT22;13129;48.012;10.352;2022-08-21T16:30:17;22.10;75.30
25170;DHT22;13129;48.012;10.352;2022-08-21T16:32:44;22.00;75.70
25170;DHT22;13129;48.012;10.352;2022-08-21T16:35:13;22.00;75.80
25170;DHT22;13129;48.012;10.352;2022-08-21T16:37:40;21.90;75.90
25170;DHT22;13129;48.012;10.352;2022-08-21T16:40:06;21.80;75.30
25170;DHT22;13129;48.012;10.352;2022-08-21T16:42:35;21.80;75.80
25170;DHT22;13129;48.012;10.352;2022-08-21T16:45:02;21.70;76.90
25170;DHT22;13129;48.012;10.352;2022-08-21T16:47:29;21.60;77.80
25170;DHT22;13129;48.012;10.352;2022-08-21T16:49:56;21.60;76.80
25170;DHT22;13129;48.012;10.352;2022-08-21T16:52:22;21.60;77.20
25170;DHT22;13129;48.012;10.352;2022-08-21T16:54:48;21.40;77.20
25170;DHT22;13129;48.012;10.352;2022-08-21T16:57:14;21.40;78.20
25170;DHT22;13129;48.012;10.352;2022-08-21T16:59:40;21.40;79.10
25170;DHT22;13129;48.012;10.352;2022-08-21T17:02:24;21.30;79.70
25170;DHT22;13129;48.012;10.352;2022-08-21T17:04:51;21.30;80.70
25170;DHT22;13129;48.012;10.352;2022-08-21T17:07:17;21.20;80.00
25170;DHT22;13129;48.012;10.352;2022-08-21T17:09:42;21.10;80.10
25170;DHT22;13129;48.012;10.352;2022-08-21T17:12:08;21.10;80.60
25170;DHT22;13129;48.012;10.352;2022-08-21T17:14:34;21.00;81.70
25170;DHT22;13129;48.012;10.352;2022-08-21T17:17:01;20.90;82.90
25170;DHT22;13129;48.012;10.352;2022-08-21T17:19:27;20.90;84.20
25170;DHT22;13129;48.012;10.352;2022-08-21T17:21:53;20.80;84.90
25170;DHT22;13129;48.012;10.352;2022-08-21T17:24:19;20.70;86.10
25170;DHT22;13129;48.012;10.352;2022-08-21T17:26:46;20.70;87.20
25170;DHT22;13129;48.012;10.352;2022-08-21T17:29:13;20.60;87.30
25170;DHT22;13129;48.012;10.352;2022-08-21T17:31:41;20.60;88.00
25170;DHT22;13129;48.012;10.352;2022-08-21T17:34:08;20.50;88.30
25170;DHT22;13129;48.012;10.352;2022-08-21T17:36:36;20.40;89.30
25170;DHT22;13129;48.012;10.352;2022-08-21T17:39:02;20.40;90.30
25170;DHT22;13129;48.012;10.352;2022-08-21T17:41:29;20.30;91.30
25170;DHT22;13129;48.012;10.352;2022-08-21T17:43:55;20.20;92.40
25170;DHT22;13129;48.012;10.352;2022-08-21T17:46:24;20.10;94.00
25170;DHT22;13129;48.012;10.352;2022-08-21T17:48:51;20.00;95.80
25170;DHT22;13129;48.012;10.352;2022-08-21T17:51:18;19.90;98.00
25170;DHT22;13129;48.012;10.352;2022-08-21T17:53:44;19.80;99.50
25170;DHT22;13129;48.012;10.352;2022-08-21T17:56:12;19.70;99.90
25170;DHT22;13129;48.012;10.352;2022-08-21T17:58:38;19.60;99.90
25170;DHT22;13129;48.012;10.352;2022-08-21T18:01:04;19.50;99.90
25170;DHT22;13129;48.012;10.352;2022-08-21T18:03:31;19.40;99.90
25170;DHT22;13129;48.012;10.352;2022-08-21T18:05:59;19.20;99.90
25170;DHT22;13129;48.012;10.352;2022-08-21T18:08:25;19.10;99.90
25170;DHT22;13129;48.012;10.352;2022-08-21T18:11:00;18.90;99.90
25170;DHT22;13129;48.012;10.352;2022-08-21T18:13:33;18.80;99.90
25170;DHT22;13129;48.012;10.352;2022-08-21T18:16:17;18.70;99.90
25170;DHT22;13129;48.012;10.352;2022-08-21T18:33:31;18.00;99.90
25170;DHT22;13129;48.012;10.352;2022-08-21T18:36:49;18.00;99.90
25170;DHT22;13129;48.012;10.352;2022-08-21T18:39:15;17.90;99.90
25170;DHT22;13129;48.012;10.352;2022-08-21T18:41:45;17.80;99.90
25170;DHT22;13129;48.012;10.352;2022-08-21T18:44:26;17.70;99.90
25170;DHT22;13129;48.012;10.352;2022-08-21T18:47:25;17.60;99.90
25170;DHT22;13129;48.012;10.352;2022-08-21T18:49:56;17.50;99.90
25170;DHT22;13129;48.012;10.352;2022-08-21T18:52:31;17.50;99.90
25170;DHT22;13129;48.012;10.352;2022-08-21T18:54:57;17.40;99.90
25170;DHT22;13129;48.012;10.352;2022-08-21T18:57:24;17.30;99.90
25170;DHT22;13129;48.012;10.352;2022-08-21T18:59:52;17.20;99.90
25170;DHT22;13129;48.012;10.352;2022-08-21T19:02:18;17.00;99.90
25170;DHT22;13129;48.012;10.352;2022-08-21T19:04:44;16.90;99.90
25170;DHT22;13129;48.012;10.352;2022-08-21T19:07:12;16.80;99.90
25170;DHT22;13129;48.012;10.352;2022-08-21T19:09:38;16.70;99.90
25170;DHT22;13129;48.012;10.352;2022-08-21T19:12:04;16.60;99.90
25170;DHT22;13129;48.012;10.352;2022-08-21T19:14:30;16.50;99.90
25170;DHT22;13129;48.012;10.352;2022-08-21T19:16:57;16.40;99.90
25170;DHT22;13129;48.012;10.352;2022-08-21T19:19:24;16.10;99.90
25170;DHT22;13129;48.012;10.352;2022-08-21T19:21:50;16.00;99.90
25170;DHT22;13129;48.012;10.352;2022-08-21T19:24:16;15.80;99.90
25170;DHT22;13129;48.012;10.352;2022-08-21T19:26:42;15.70;99.90
25170;DHT22;13129;48.012;10.352;2022-08-21T19:39:13;15.50;99.90
25170;DHT22;13129;48.012;10.352;2022-08-21T19:41:43;15.50;99.90
25170;DHT22;13129;48.012;10.352;2022-08-21T19:47:16;15.50;99.90
25170;DHT22;13129;48.012;10.352;2022-08-21T20:39:48;14.60;99.90
25170;DHT22;13129;48.012;10.352;2022-08-21T20:43:02;14.40;99.90
25170;DHT22;13129;48.012;10.352;2022-08-21T20:46:02;14.20;99.90
25170;DHT22;13129;48.012;10.352;2022-08-21T20:48:45;14.20;99.90
25170;DHT22;13129;48.012;10.352;2022-08-21T20:58:54;14.20;99.90
25170;DHT22;13129;48.012;10.352;2022-08-21T21:11:38;13.90;99.90
25170;DHT22;13129;48.012;10.352;2022-08-21T21:14:16;13.70;99.90
25170;DHT22;13129;48.012;10.352;2022-08-21T21:16:51;13.70;99.90
25170;DHT22;13129;48.012;10.352;2022-08-21T21:19:53;13.50;99.90
25170;DHT22;13129;48.012;10.352;2022-08-21T21:22:24;13.40;99.90
25170;DHT22;13129;48.012;10.352;2022-08-21T21:27:51;13.20;99.90
25170;DHT22;13129;48.012;10.352;2022-08-21T21:30:29;13.20;99.90
25170;DHT22;13129;48.012;10.352;2022-08-21T21:32:58;13.20;99.90
25170;DHT22;13129;48.012;10.352;2022-08-21T21:35:44;13.30;99.90
25170;DHT22;13129;48.012;10.352;2022-08-21T21:41:08;13.30;99.90
25170;DHT22;13129;48.012;10.352;2022-08-21T22:04:22;13.00;99.90
25170;DHT22;13129;48.012;10.352;2022-08-21T22:07:03;12.90;99.90
25170;DHT22;13129;48.012;10.352;2022-08-21T22:13:26;12.80;99.90
25170;DHT22;13129;48.012;10.352;2022-08-21T22:16:05;12.90;99.90
25170;DHT22;13129;48.012;10.352;2022-08-21T22:19:08;12.80;99.90
25170;DHT22;13129;48.012;10.352;2022-08-21T22:21:44;12.80;99.90
25170;DHT22;13129;48.012;10.352;2022-08-21T22:24:30;12.80;99.90
25170;DHT22;13129;48.012;10.352;2022-08-21T22:27:11;13.00;99.90
25170;DHT22;13129;48.012;10.352;2022-08-21T22:34:21;13.20;99.90
25170;DHT22;13129;48.012;10.352;2022-08-21T22:36:49;13.20;99.90
25170;DHT22;13129;48.012;10.352;2022-08-21T22:40:06;13.10;99.90
25170;DHT22;13129;48.012;10.352;2022-08-21T22:42:58;12.90;99.90